Time;durP1;ratioP1;P1;durP2;ratioP2;P2;SDS_P1;SDS_P2;PMS_P1;PMS_P2;Temp;Humidity;BMP_temperature;BMP_pressure;BME280_temperature;BME280_humidity;BME280_pressure;Samples;Min_cycle;Max_cycle;Signal;HPM_P1;HPM_P2
2022/01/02 00:01:37;;;;;;;9.00;8.20;;;9.40;77.40;;;;;;5053278;28;20214;-57
2022/01/02 00:04:05;;;;;;;8.00;7.30;;;9.30;77.40;;;;;;5053181;28;20682;-58
2022/01/02 00:06:34;;;;;;;7.63;6.93;;;9.20;77.40;;;;;;5053089;28;20240;-55
2022/01/02 00:09:04;;;;;;;9.02;8.20;;;9.20;77.40;;;;;;5053074;28;20206;-55
2022/01/02 00:11:31;;;;;;;7.55;6.85;;;9.20;77.30;;;;;;5051729;28;20237;-59
2022/01/02 00:14:06;;;;;;;8.77;8.02;;;9.20;77.40;;;;;;5052928;28;20203;-59
2022/01/02 00:16:35;;;;;;;8.50;7.70;;;9.20;77.90;;;;;;5052981;28;20224;-54
2022/01/02 00:19:07;;;;;;;9.57;7.68;;;9.20;77.50;;;;;;5052997;28;20201;-59
2022/01/02 00:21:41;;;;;;;8.27;7.47;;;9.20;77.30;;;;;;5052918;28;20208;-56
2022/01/02 00:24:13;;;;;;;8.30;7.60;;;9.30;77.30;;;;;;5052816;28;20215;-56
2022/01/02 00:26:43;;;;;;;8.25;7.45;;;9.20;77.30;;;;;;5051590;28;20760;-57
2022/01/02 00:29:12;;;;;;;7.95;7.25;;;9.20;77.50;;;;;;5051923;28;20204;-57
2022/01/02 00:31:40;;;;;;;7.07;6.47;;;9.20;77.60;;;;;;5052751;28;20233;-58
2022/01/02 00:34:08;;;;;;;6.80;6.22;;;9.20;77.60;;;;;;5052651;28;20208;-53
2022/01/02 00:36:37;;;;;;;7.97;7.20;;;9.30;77.40;;;;;;5052931;28;20229;-55
2022/01/02 00:39:06;;;;;;;7.35;6.75;;;9.30;77.10;;;;;;5052733;28;20580;-57
2022/01/02 00:41:36;;;;;;;7.30;6.70;;;9.40;76.90;;;;;;5051566;28;20565;-59
2022/01/02 00:44:10;;;;;;;7.55;6.85;;;9.40;76.90;;;;;;5052653;28;20208;-58
2022/01/02 00:46:47;;;;;;;7.43;6.72;;;9.50;76.70;;;;;;5052645;28;20236;-56
2022/01/02 00:49:24;;;;;;;7.68;7.00;;;9.50;76.60;;;;;;5052669;28;20296;-58
2022/01/02 00:51:59;;;;;;;8.45;7.68;;;9.60;76.30;;;;;;5052591;28;20233;-57
2022/01/02 00:54:29;;;;;;;8.02;6.55;;;9.60;76.10;;;;;;5052800;28;20201;-59
2022/01/02 00:57:03;;;;;;;7.88;7.18;;;9.60;76.10;;;;;;5051398;28;20208;-57
2022/01/02 00:59:37;;;;;;;6.93;6.32;;;9.60;75.90;;;;;;5052469;28;20201;-60
2022/01/02 01:02:05;;;;;;;7.70;7.00;;;9.60;75.80;;;;;;5052640;28;20205;-58
2022/01/02 01:04:34;;;;;;;7.63;6.93;;;9.60;75.90;;;;;;5052610;28;20212;-59
2022/01/02 01:07:05;;;;;;;7.60;6.90;;;9.60;75.80;;;;;;5052538;28;20201;-60
2022/01/02 01:09:32;;;;;;;7.43;6.82;;;9.60;75.90;;;;;;5052382;28;20205;-56
2022/01/02 01:12:00;;;;;;;7.70;7.10;;;9.50;75.90;;;;;;5050876;28;20241;-57
2022/01/02 01:14:29;;;;;;;7.95;7.13;;;9.50;75.90;;;;;;5052291;28;20240;-60
2022/01/02 01:16:56;;;;;;;7.68;7.00;;;9.50;75.90;;;;;;5052422;28;20276;-57
2022/01/02 01:19:24;;;;;;;8.02;7.32;;;9.60;75.90;;;;;;5052375;28;20297;-59
2022/01/02 01:21:52;;;;;;;7.60;6.82;;;9.60;75.90;;;;;;5052497;28;20267;-60
2022/01/02 01:24:20;;;;;;;7.00;6.40;;;9.60;75.80;;;;;;5052195;28;20652;-58
2022/01/02 01:26:50;;;;;;;6.95;6.45;;;9.70;75.60;;;;;;5050953;28;20201;-59
2022/01/02 01:29:17;;;;;;;7.45;6.75;;;9.70;75.40;;;;;;5052179;28;20251;-57
2022/01/02 01:31:46;;;;;;;7.32;6.72;;;9.70;75.30;;;;;;5052218;28;20320;-59
2022/01/02 01:34:13;;;;;;;7.28;6.68;;;9.70;75.00;;;;;;5052189;28;20212;-53
2022/01/02 01:36:39;;;;;;;9.95;7.03;;;9.70;75.10;;;;;;5052214;28;20208;-58
2022/01/02 01:39:06;;;;;;;7.10;6.60;;;9.70;75.20;;;;;;5052105;28;20244;-58
2022/01/02 01:41:38;;;;;;;7.40;6.80;;;9.70;75.00;;;;;;5053190;28;20223;-60
2022/01/02 01:44:21;;;;;;;7.45;6.80;;;9.70;74.90;;;;;;5055647;28;20206;-57
2022/01/02 01:46:51;;;;;;;7.72;7.07;;;9.60;74.90;;;;;;5055826;28;20616;-58
2022/01/02 01:49:20;;;;;;;7.10;6.50;;;9.60;74.80;;;;;;5055560;28;20259;-59
2022/01/02 01:51:48;;;;;;;7.80;7.10;;;9.60;74.80;;;;;;5055623;28;20320;-60
2022/01/02 01:54:15;;;;;;;8.05;7.30;;;9.50;75.00;;;;;;5055666;28;20660;-57
2022/01/02 01:56:45;;;;;;;8.02;7.30;;;9.50;75.00;;;;;;5054400;28;20210;-61
2022/01/02 01:59:12;;;;;;;7.88;7.20;;;9.40;75.30;;;;;;5055449;28;20214;-58
2022/01/02 02:01:39;;;;;;;9.45;7.70;;;9.30;75.30;;;;;;5055523;28;20664;-58
2022/01/02 02:04:06;;;;;;;8.65;7.85;;;9.20;75.50;;;;;;5055389;28;20305;-58
2022/01/02 02:06:35;;;;;;;7.95;7.10;;;9.20;75.60;;;;;;5055546;28;20215;-58
2022/01/02 02:09:02;;;;;;;9.00;8.20;;;9.10;75.70;;;;;;5055393;28;20646;-54
2022/01/02 02:11:29;;;;;;;9.30;8.40;;;9.00;76.10;;;;;;5053751;28;20757;-58
2022/01/02 02:13:58;;;;;;;8.30;7.60;;;8.90;76.40;;;;;;5055127;28;20267;-58
2022/01/02 02:16:25;;;;;;;8.32;7.57;;;8.90;76.60;;;;;;5055149;28;20205;-58
2022/01/02 02:18:52;;;;;;;8.85;8.00;;;9.00;76.60;;;;;;5055225;28;20209;-55
2022/01/02 02:21:29;;;;;;;9.20;8.40;;;9.00;76.40;;;;;;5055314;28;20296;-58
2022/01/02 02:23:56;;;;;;;8.95;8.15;;;8.90;76.70;;;;;;5055183;28;20297;-57
2022/01/02 02:26:23;;;;;;;8.88;8.07;;;8.80;76.80;;;;;;5053847;28;20566;-59
2022/01/02 02:28:50;;;;;;;9.60;7.55;;;8.80;77.00;;;;;;5054790;28;20740;-58
2022/01/02 02:31:17;;;;;;;6.60;6.00;;;8.70;77.30;;;;;;5054861;28;20227;-60
2022/01/02 02:33:44;;;;;;;8.30;7.50;;;8.70;77.40;;;;;;5054956;28;20209;-55
2022/01/02 02:36:11;;;;;;;7.30;6.70;;;8.70;77.20;;;;;;5054863;28;20202;-58
2022/01/02 02:38:40;;;;;;;7.68;7.07;;;8.70;77.20;;;;;;5054711;28;20236;-55
2022/01/02 02:41:07;;;;;;;7.90;7.28;;;8.80;77.10;;;;;;5053525;28;20296;-58
2022/01/02 02:43:42;;;;;;;8.10;7.30;;;8.70;77.10;;;;;;5054490;28;20759;-60
2022/01/02 02:49:05;;;;;;;7.68;7.05;;;8.70;77.40;;;;;;5054561;28;20683;-57
2022/01/02 02:51:41;;;;;;;8.18;7.47;;;8.60;77.50;;;;;;5054399;28;20224;-60
2022/01/02 02:54:10;;;;;;;8.52;7.72;;;8.60;77.70;;;;;;5054024;28;20201;-59
2022/01/02 02:56:45;;;;;;;7.90;7.20;;;8.50;77.90;;;;;;5053241;28;20288;-55
2022/01/02 02:59:13;;;;;;;9.10;8.20;;;8.40;78.10;;;;;;5054355;28;20201;-57
2022/01/02 03:01:41;;;;;;;8.88;7.97;;;8.30;78.40;;;;;;5054490;28;20678;-58
2022/01/02 03:04:08;;;;;;;8.95;7.63;;;8.20;78.80;;;;;;5054423;28;20209;-58
2022/01/02 03:06:35;;;;;;;8.57;7.78;;;8.10;79.40;;;;;;5054104;28;20205;-55
2022/01/02 03:09:08;;;;;;;8.40;7.60;;;8.00;79.90;;;;;;5054281;28;20201;-55
2022/01/02 03:11:36;;;;;;;7.57;6.88;;;7.90;80.00;;;;;;5052747;28;20276;-58
2022/01/02 03:14:04;;;;;;;6.93;6.32;;;7.90;80.20;;;;;;5053930;28;20213;-57
2022/01/02 03:16:31;;;;;;;6.85;6.10;;;8.00;80.20;;;;;;5054151;28;20206;-60
2022/01/02 03:18:58;;;;;;;6.68;6.00;;;8.20;79.90;;;;;;5054057;28;20209;-58
2022/01/02 03:21:25;;;;;;;7.50;6.85;;;8.30;79.40;;;;;;5054077;28;20216;-60
2022/01/02 03:23:52;;;;;;;8.43;7.72;;;8.40;78.90;;;;;;5054093;28;20219;-54
2022/01/02 03:26:20;;;;;;;9.43;8.10;;;8.40;78.20;;;;;;5052766;28;20213;-58
2022/01/02 03:28:48;;;;;;;8.00;7.30;;;8.30;78.40;;;;;;5053757;28;20202;-54
2022/01/02 03:31:15;;;;;;;8.80;7.97;;;8.10;78.70;;;;;;5053899;28;20209;-54
2022/01/02 03:33:42;;;;;;;9.05;7.60;;;7.90;79.30;;;;;;5053674;28;20212;-56
2022/01/02 03:36:10;;;;;;;7.78;7.07;;;7.70;79.90;;;;;;5053637;28;20213;-58
2022/01/02 03:38:37;;;;;;;7.70;6.90;;;7.60;80.90;;;;;;5053654;28;20207;-60
2022/01/02 03:41:03;;;;;;;8.10;6.50;;;7.70;81.10;;;;;;5052488;28;20210;-57
2022/01/02 03:43:30;;;;;;;7.25;6.55;;;7.80;80.70;;;;;;5053589;28;20216;-56
2022/01/02 03:46:02;;;;;;;7.82;7.07;;;8.00;80.20;;;;;;5053564;28;20231;-58
2022/01/02 03:48:29;;;;;;;6.88;6.28;;;8.00;79.90;;;;;;5053385;28;20207;-60
2022/01/02 03:50:56;;;;;;;8.00;6.63;;;8.10;79.40;;;;;;5053492;28;20659;-57
2022/01/02 03:53:23;;;;;;;7.97;7.18;;;8.10;79.00;;;;;;5053443;28;20243;-58
2022/01/02 03:55:49;;;;;;;7.53;6.82;;;8.20;78.70;;;;;;5052223;28;20300;-55
2022/01/02 03:58:16;;;;;;;8.70;7.88;;;8.00;79.10;;;;;;5053396;28;20212;-57
2022/01/02 04:00:44;;;;;;;8.55;7.75;;;8.00;79.30;;;;;;5053323;28;20216;-55
2022/01/02 04:03:12;;;;;;;7.75;7.03;;;7.90;79.60;;;;;;5053118;28;20227;-61
2022/01/02 04:05:39;;;;;;;7.70;6.90;;;7.90;79.60;;;;;;5053225;28;20208;-55
2022/01/02 04:08:05;;;;;;;6.88;6.28;;;7.90;79.90;;;;;;5053189;28;20206;-59
2022/01/02 04:10:32;;;;;;;7.85;7.00;;;7.90;80.10;;;;;;5051810;28;20271;-57
2022/01/02 04:12:59;;;;;;;7.47;6.72;;;7.90;80.00;;;;;;5052965;28;20236;-58
2022/01/02 04:15:26;;;;;;;7.38;6.63;;;8.00;79.90;;;;;;5052984;28;20621;-58
2022/01/02 04:17:53;;;;;;;6.78;6.20;;;7.90;79.90;;;;;;5053050;28;20213;-58
2022/01/02 04:20:21;;;;;;;7.40;6.70;;;7.80;80.60;;;;;;5053097;28;20615;-55
2022/01/02 04:22:48;;;;;;;8.15;6.85;;;7.80;80.90;;;;;;5053038;28;20205;-59
2022/01/02 04:25:15;;;;;;;7.53;6.72;;;7.80;81.20;;;;;;5051672;28;20313;-56
2022/01/02 04:27:42;;;;;;;7.10;6.40;;;7.80;81.00;;;;;;5052830;28;20202;-59
2022/01/02 04:30:11;;;;;;;7.50;6.80;;;7.90;80.60;;;;;;5052674;28;20197;-60
2022/01/02 04:32:38;;;;;;;6.95;6.38;;;8.00;80.30;;;;;;5052845;28;20312;-58
2022/01/02 04:35:05;;;;;;;6.50;5.90;;;7.90;80.20;;;;;;5052796;28;20670;-59
2022/01/02 04:37:34;;;;;;;6.32;5.82;;;7.90;80.70;;;;;;5052811;28;20589;-57
2022/01/02 04:40:01;;;;;;;7.78;6.20;;;7.90;80.90;;;;;;5051572;28;20201;-60
2022/01/02 04:42:28;;;;;;;6.35;5.85;;;7.80;81.00;;;;;;5052648;28;20626;-59
2022/01/02 04:44:54;;;;;;;6.63;6.10;;;7.80;81.00;;;;;;5052593;28;20309;-58
2022/01/02 04:47:21;;;;;;;6.35;5.75;;;7.80;81.00;;;;;;5052676;28;20228;-58
2022/01/02 04:49:48;;;;;;;7.15;6.45;;;7.90;80.70;;;;;;5052701;28;20215;-59
2022/01/02 04:52:15;;;;;;;7.25;6.65;;;8.10;80.30;;;;;;5052721;28;20235;-56
2022/01/02 04:54:43;;;;;;;6.70;6.20;;;8.20;79.90;;;;;;5052597;28;20236;-60
2022/01/02 04:57:10;;;;;;;6.82;6.32;;;8.30;79.30;;;;;;5051197;28;20293;-60
2022/01/02 04:59:38;;;;;;;7.07;6.57;;;8.40;79.00;;;;;;5052441;28;20280;-59
2022/01/02 05:02:06;;;;;;;6.53;6.03;;;8.40;78.90;;;;;;5052607;28;20686;-60
2022/01/02 05:04:32;;;;;;;6.50;5.90;;;8.40;78.80;;;;;;5052797;28;20208;-61
2022/01/02 05:06:59;;;;;;;6.60;6.05;;;8.30;79.00;;;;;;5052597;28;20205;-58
2022/01/02 05:09:26;;;;;;;6.97;6.38;;;8.20;79.70;;;;;;5052481;28;20212;-56
2022/01/02 05:11:55;;;;;;;6.70;6.10;;;8.10;79.80;;;;;;5050895;28;20229;-59
2022/01/02 05:14:21;;;;;;;6.35;5.85;;;8.10;79.90;;;;;;5052324;28;20208;-58
2022/01/02 05:16:48;;;;;;;6.50;6.00;;;8.20;79.70;;;;;;5055331;28;20212;-58
2022/01/02 05:19:15;;;;;;;6.57;6.07;;;8.30;79.50;;;;;;5056392;28;20212;-57
2022/01/02 05:21:42;;;;;;;6.78;6.28;;;8.30;79.20;;;;;;5056314;28;20635;-56
2022/01/02 05:24:09;;;;;;;7.38;6.72;;;8.30;79.00;;;;;;5056197;28;20296;-60
2022/01/02 05:26:36;;;;;;;6.72;6.13;;;8.30;78.90;;;;;;5054953;28;20212;-59
2022/01/02 05:29:05;;;;;;;7.68;6.82;;;8.30;79.00;;;;;;5056116;28;20198;-59
2022/01/02 05:31:32;;;;;;;7.70;7.00;;;8.20;78.90;;;;;;5056206;28;20221;-59
2022/01/02 05:33:59;;;;;;;7.35;6.75;;;8.10;79.00;;;;;;5056066;28;20335;-59
2022/01/02 05:36:26;;;;;;;8.05;7.25;;;8.00;79.20;;;;;;5055909;28;20316;-59
2022/01/02 05:38:53;;;;;;;7.97;7.20;;;7.90;79.20;;;;;;5055776;28;20206;-56
2022/01/02 05:41:21;;;;;;;8.60;7.80;;;7.80;79.50;;;;;;5054899;28;20197;-57
2022/01/02 05:43:48;;;;;;;9.55;7.80;;;7.70;79.80;;;;;;5055774;28;20300;-58
2022/01/02 05:46:17;;;;;;;8.10;7.30;;;7.60;80.20;;;;;;5055877;28;20297;-55
2022/01/02 05:48:44;;;;;;;9.43;7.93;;;7.50;80.50;;;;;;5055720;28;20209;-59
2022/01/02 05:51:11;;;;;;;9.40;7.70;;;7.40;80.70;;;;;;5055714;28;20293;-59
2022/01/02 05:53:38;;;;;;;9.40;8.50;;;7.30;80.90;;;;;;5055647;28;20598;-57
2022/01/02 05:56:05;;;;;;;7.75;6.95;;;7.20;81.40;;;;;;5054407;28;20201;-60
2022/01/02 05:58:33;;;;;;;8.40;7.60;;;7.10;81.60;;;;;;5055633;28;20571;-59
2022/01/02 06:00:59;;;;;;;7.95;7.10;;;7.00;81.90;;;;;;5055516;28;20205;-59
2022/01/02 06:03:28;;;;;;;7.25;6.65;;;7.00;82.20;;;;;;5055539;28;20205;-54
2022/01/02 06:05:54;;;;;;;7.95;6.68;;;7.00;82.20;;;;;;5055382;28;20296;-59
2022/01/02 06:08:21;;;;;;;7.00;6.40;;;7.00;82.20;;;;;;5055571;28;20229;-59
2022/01/02 06:10:49;;;;;;;8.23;6.63;;;7.00;82.30;;;;;;5053979;28;20324;-59
2022/01/02 06:13:16;;;;;;;7.80;6.75;;;7.00;82.10;;;;;;5055155;28;20239;-60
2022/01/02 06:15:43;;;;;;;7.30;6.53;;;7.10;82.00;;;;;;5055325;28;20233;-60
2022/01/02 06:18:10;;;;;;;8.55;7.43;;;7.10;81.70;;;;;;5055306;28;20219;-57
2022/01/02 06:20:38;;;;;;;6.45;5.85;;;7.10;81.70;;;;;;5055136;28;20648;-57
2022/01/02 06:23:05;;;;;;;6.13;5.47;;;7.00;82.20;;;;;;5055241;28;20212;-58
2022/01/02 06:25:33;;;;;;;7.43;6.72;;;7.00;82.20;;;;;;5053866;28;20208;-60
2022/01/02 06:28:01;;;;;;;7.50;6.80;;;7.00;82.10;;;;;;5053917;28;20205;-58
2022/01/02 06:30:28;;;;;;;7.32;6.72;;;7.00;82.20;;;;;;5054986;28;20201;-58
2022/01/02 06:32:55;;;;;;;8.40;6.55;;;6.90;82.70;;;;;;5054862;28;20240;-57
2022/01/02 06:35:24;;;;;;;6.72;6.03;;;6.80;83.00;;;;;;5054824;28;20233;-57
2022/01/02 06:37:53;;;;;;;6.00;5.50;;;6.90;83.10;;;;;;5054953;28;20212;-56
2022/01/02 06:40:20;;;;;;;6.90;5.90;;;7.00;82.70;;;;;;5053662;28;20674;-58
2022/01/02 06:42:47;;;;;;;6.25;5.63;;;7.10;82.30;;;;;;5054773;28;20725;-58
2022/01/02 06:45:14;;;;;;;6.20;5.70;;;7.20;81.80;;;;;;5054739;28;20205;-55
2022/01/02 06:47:41;;;;;;;6.03;5.63;;;7.50;80.80;;;;;;5054535;28;20300;-55
2022/01/02 06:50:09;;;;;;;5.88;5.40;;;7.90;78.80;;;;;;5054664;28;20212;-60
2022/01/02 06:52:36;;;;;;;6.22;5.72;;;8.20;77.70;;;;;;5054594;28;20227;-60
2022/01/02 06:55:05;;;;;;;5.90;5.40;;;8.40;76.60;;;;;;5053254;28;20212;-59
2022/01/02 06:57:32;;;;;;;6.30;5.90;;;8.50;75.70;;;;;;5054761;28;20232;-57
2022/01/02 06:59:59;;;;;;;6.05;5.55;;;8.80;74.00;;;;;;5054227;28;20285;-58
2022/01/02 07:02:26;;;;;;;6.45;5.97;;;9.00;73.20;;;;;;5054493;28;20236;-57
2022/01/02 07:04:53;;;;;;;7.47;6.78;;;9.00;74.00;;;;;;5054393;28;20631;-58
2022/01/02 07:07:20;;;;;;;6.10;5.80;;;8.80;74.90;;;;;;5054306;28;20205;-62
2022/01/02 07:09:46;;;;;;;7.70;6.85;;;8.70;75.20;;;;;;5054371;28;20296;-60
2022/01/02 07:12:15;;;;;;;6.15;5.85;;;8.60;75.40;;;;;;5052959;28;20292;-62
2022/01/02 07:14:42;;;;;;;6.25;5.95;;;8.70;75.10;;;;;;5053887;28;20241;-59
2022/01/02 07:17:08;;;;;;;6.50;6.10;;;8.70;74.90;;;;;;5054160;28;20305;-60
2022/01/02 07:19:35;;;;;;;7.68;7.10;;;8.80;74.40;;;;;;5054055;28;20670;-59
2022/01/02 07:22:02;;;;;;;6.80;6.40;;;8.90;74.50;;;;;;5054059;28;20292;-59
2022/01/02 07:24:29;;;;;;;6.45;6.05;;;8.90;73.90;;;;;;5054031;28;20210;-58
2022/01/02 07:26:56;;;;;;;6.40;6.00;;;9.00;73.50;;;;;;5052718;28;20289;-61
2022/01/02 07:29:24;;;;;;;7.00;6.50;;;9.00;74.00;;;;;;5053681;28;20611;-61
2022/01/02 07:31:51;;;;;;;7.30;6.70;;;8.90;73.90;;;;;;5053867;28;20205;-61
2022/01/02 07:34:18;;;;;;;6.90;6.50;;;8.80;74.90;;;;;;5053744;28;20316;-60
2022/01/02 07:36:45;;;;;;;7.07;6.57;;;8.70;75.30;;;;;;5053804;28;20208;-60
2022/01/02 07:39:13;;;;;;;6.82;6.43;;;8.60;75.20;;;;;;5053513;28;20545;-61
2022/01/02 07:41:40;;;;;;;6.50;6.05;;;8.60;75.00;;;;;;5052362;28;20197;-60
2022/01/02 07:44:08;;;;;;;6.75;6.30;;;8.70;74.10;;;;;;5053371;28;20219;-60
2022/01/02 07:46:36;;;;;;;6.70;6.20;;;8.80;73.30;;;;;;5053613;28;20592;-60
2022/01/02 07:49:03;;;;;;;7.22;6.68;;;8.90;72.60;;;;;;5053478;28;20206;-58
2022/01/02 07:51:31;;;;;;;7.15;6.43;;;9.00;72.40;;;;;;5053602;28;20212;-62
2022/01/02 07:53:58;;;;;;;6.18;5.78;;;9.00;72.90;;;;;;5053318;28;20233;-60
2022/01/02 07:56:25;;;;;;;7.50;7.00;;;9.00;73.10;;;;;;5052123;28;20205;-59
2022/01/02 07:58:51;;;;;;;7.07;6.72;;;8.90;73.70;;;;;;5053275;28;20198;-61
2022/01/02 08:01:19;;;;;;;7.20;6.80;;;8.80;74.00;;;;;;5053298;28;20762;-61
2022/01/02 08:03:47;;;;;;;7.35;6.95;;;8.60;74.60;;;;;;5053345;28;20627;-58
2022/01/02 08:06:14;;;;;;;6.90;6.40;;;8.50;75.10;;;;;;5053268;28;20289;-60
2022/01/02 08:08:42;;;;;;;7.32;6.80;;;8.40;75.20;;;;;;5053355;28;20206;-57
2022/01/02 08:11:09;;;;;;;7.20;6.80;;;8.40;75.20;;;;;;5051602;28;20320;-59
2022/01/02 08:13:36;;;;;;;7.50;7.00;;;8.40;75.00;;;;;;5053018;28;20315;-59
2022/01/02 08:16:03;;;;;;;7.20;6.70;;;8.50;74.50;;;;;;5052982;28;20207;-62
2022/01/02 08:18:30;;;;;;;7.25;6.85;;;8.60;74.40;;;;;;5053166;28;20566;-59
2022/01/02 08:20:58;;;;;;;7.80;7.20;;;8.60;74.30;;;;;;5053004;28;20206;-61
2022/01/02 08:23:25;;;;;;;7.70;7.22;;;8.70;73.70;;;;;;5052945;28;20228;-58
2022/01/02 08:25:51;;;;;;;7.30;6.60;;;8.70;73.80;;;;;;5051540;28;20302;-60
2022/01/02 08:28:19;;;;;;;7.55;6.95;;;8.80;73.30;;;;;;5052971;28;20656;-62
2022/01/02 08:30:47;;;;;;;8.48;7.88;;;8.90;73.30;;;;;;5052774;28;20627;-58
2022/01/02 08:33:14;;;;;;;7.70;7.20;;;8.90;73.40;;;;;;5052922;28;20229;-58
2022/01/02 08:35:43;;;;;;;7.75;7.25;;;8.80;73.90;;;;;;5052752;28;20229;-57
2022/01/02 08:38:11;;;;;;;7.45;6.90;;;8.90;73.00;;;;;;5052666;28;20659;-59
2022/01/02 08:40:39;;;;;;;7.20;6.75;;;9.00;72.00;;;;;;5051706;28;20215;-59
2022/01/02 08:43:06;;;;;;;7.18;6.78;;;9.20;70.50;;;;;;5052695;28;20295;-63
2022/01/02 08:45:34;;;;;;;7.35;6.90;;;9.40;70.70;;;;;;5052544;28;20209;-61
2022/01/02 08:48:01;;;;;;;7.05;6.65;;;9.50;70.20;;;;;;5052549;28;20688;-59
2022/01/02 08:50:28;;;;;;;8.63;8.07;;;9.60;69.60;;;;;;5053430;28;20215;-58
2022/01/02 08:52:54;;;;;;;6.40;6.10;;;9.70;69.10;;;;;;5056893;28;20284;-61
2022/01/02 08:55:23;;;;;;;6.95;6.55;;;9.80;68.80;;;;;;5055518;28;20215;-59
2022/01/02 08:57:50;;;;;;;7.35;6.95;;;9.90;68.90;;;;;;5056756;28;20201;-60
2022/01/02 09:00:17;;;;;;;7.55;7.05;;;9.90;68.20;;;;;;5056656;28;20229;-60
2022/01/02 09:02:44;;;;;;;6.90;6.50;;;10.00;67.70;;;;;;5056663;28;20573;-61
2022/01/02 09:05:11;;;;;;;7.03;6.63;;;10.10;67.10;;;;;;5056584;28;20303;-60
2022/01/02 09:07:38;;;;;;;6.55;6.20;;;10.20;66.70;;;;;;5056493;28;20197;-60
2022/01/02 09:10:05;;;;;;;6.78;6.38;;;10.30;66.40;;;;;;5055137;28;20232;-59
2022/01/02 09:12:34;;;;;;;6.80;6.45;;;10.50;64.80;;;;;;5056392;28;20215;-57
2022/01/02 09:15:00;;;;;;;6.95;6.60;;;10.70;63.90;;;;;;5056473;28;20599;-60
2022/01/02 09:17:27;;;;;;;7.45;7.05;;;10.90;64.20;;;;;;5056357;28;20219;-61
2022/01/02 09:19:57;;;;;;;6.80;6.50;;;11.10;63.30;;;;;;5056389;28;20209;-59
2022/01/02 09:22:23;;;;;;;6.78;6.38;;;11.30;62.80;;;;;;5056263;28;20660;-59
2022/01/02 09:24:52;;;;;;;6.95;6.65;;;11.30;63.20;;;;;;5056266;28;20207;-60
2022/01/02 09:27:19;;;;;;;6.97;6.47;;;11.40;62.20;;;;;;5055248;28;20209;-60
2022/01/02 09:29:47;;;;;;;6.60;6.30;;;11.50;61.30;;;;;;5056045;28;20300;-60
2022/01/02 09:32:14;;;;;;;7.28;6.88;;;11.60;61.50;;;;;;5056145;28;20236;-60
2022/01/02 09:34:41;;;;;;;6.70;6.30;;;11.70;61.00;;;;;;5055721;28;20237;-60
2022/01/02 09:37:08;;;;;;;7.28;6.97;;;11.70;61.40;;;;;;5056188;28;20205;-60
2022/01/02 09:39:34;;;;;;;7.00;6.70;;;11.70;62.40;;;;;;5056110;28;20208;-60
2022/01/02 09:42:01;;;;;;;6.72;6.32;;;11.70;62.10;;;;;;5054746;28;20216;-61
2022/01/02 09:44:29;;;;;;;7.60;7.10;;;11.60;63.70;;;;;;5055764;28;20683;-60
2022/01/02 09:46:58;;;;;;;7.68;7.07;;;11.50;63.70;;;;;;5055801;28;20737;-61
2022/01/02 09:49:25;;;;;;;6.45;6.05;;;11.50;64.50;;;;;;5055753;28;20210;-59
2022/01/02 09:51:52;;;;;;;7.80;7.30;;;11.40;65.10;;;;;;5055948;28;20204;-60
2022/01/02 09:54:19;;;;;;;6.78;6.38;;;11.40;65.40;;;;;;5055657;28;20798;-62
2022/01/02 09:56:46;;;;;;;7.75;7.25;;;11.40;64.50;;;;;;5054392;28;20571;-60
2022/01/02 09:59:12;;;;;;;7.80;7.40;;;11.40;65.50;;;;;;5055388;28;20201;-59
2022/01/02 10:01:39;;;;;;;7.57;7.18;;;11.40;65.60;;;;;;5055217;28;20215;-58
2022/01/02 10:04:07;;;;;;;6.80;6.40;;;11.40;65.70;;;;;;5055627;28;20209;-60
2022/01/02 10:06:40;;;;;;;8.00;7.43;;;11.40;64.80;;;;;;5055603;28;20297;-60
2022/01/02 10:09:14;;;;;;;7.78;7.18;;;11.60;63.80;;;;;;5055576;28;20197;-56
2022/01/02 10:11:41;;;;;;;8.15;7.53;;;11.70;62.70;;;;;;5053900;28;20239;-60
2022/01/02 10:14:10;;;;;;;7.95;7.45;;;11.70;65.20;;;;;;5055116;28;20237;-60
2022/01/02 10:16:39;;;;;;;7.75;7.35;;;11.70;62.90;;;;;;5055421;28;20735;-60
2022/01/02 10:19:20;;;;;;;8.13;7.53;;;11.60;65.40;;;;;;5055194;28;20676;-58
2022/01/02 10:21:54;;;;;;;7.70;7.15;;;11.60;65.80;;;;;;5055218;28;20211;-62
2022/01/02 10:24:26;;;;;;;7.72;7.22;;;11.40;65.70;;;;;;5055208;28;20562;-58
2022/01/02 10:27:10;;;;;;;7.20;6.80;;;11.40;66.10;;;;;;5053727;28;20251;-60
2022/01/02 10:29:43;;;;;;;7.32;6.82;;;11.30;64.80;;;;;;5054934;28;20201;-58
2022/01/02 10:32:28;;;;;;;8.80;8.20;;;11.30;66.80;;;;;;5054978;28;20211;-60
2022/01/02 10:35:13;;;;;;;8.40;7.80;;;11.30;66.50;;;;;;5054815;28;20236;-60
2022/01/02 10:37:42;;;;;;;8.48;7.95;;;11.30;66.80;;;;;;5054829;28;20212;-61
2022/01/02 10:40:28;;;;;;;8.48;7.90;;;11.40;67.00;;;;;;5053465;28;20233;-59
2022/01/02 10:42:55;;;;;;;7.70;7.20;;;11.30;66.90;;;;;;5054749;28;20292;-60
2022/01/02 10:45:33;;;;;;;7.78;7.18;;;11.30;67.00;;;;;;5054443;28;20660;-58
2022/01/02 10:48:00;;;;;;;9.18;8.48;;;11.30;67.00;;;;;;5054743;28;20205;-61
2022/01/02 10:50:28;;;;;;;8.68;8.15;;;11.40;67.00;;;;;;5054713;28;20212;-61
2022/01/02 10:52:55;;;;;;;8.85;8.15;;;11.30;67.00;;;;;;5054539;28;20206;-59
2022/01/02 10:55:24;;;;;;;8.27;7.68;;;11.30;66.40;;;;;;5053235;28;20243;-58
2022/01/02 10:57:52;;;;;;;8.57;8.00;;;11.20;66.80;;;;;;5054605;28;20209;-60
2022/01/02 11:00:21;;;;;;;8.32;7.82;;;11.00;67.10;;;;;;5054357;28;20197;-60
2022/01/02 11:02:48;;;;;;;9.95;9.15;;;11.00;67.20;;;;;;5054437;28;20201;-60
2022/01/02 11:05:16;;;;;;;9.65;8.95;;;11.00;68.50;;;;;;5054429;28;20201;-62
2022/01/02 11:07:46;;;;;;;9.30;8.68;;;11.00;68.80;;;;;;5054344;28;20208;-60
2022/01/02 11:10:15;;;;;;;8.50;7.78;;;11.00;68.90;;;;;;5052800;28;20356;-59
2022/01/02 11:12:43;;;;;;;9.98;9.18;;;11.00;68.10;;;;;;5053791;28;20205;-60
2022/01/02 11:15:13;;;;;;;9.60;8.80;;;11.10;67.70;;;;;;5053543;28;20231;-59
2022/01/02 11:17:40;;;;;;;9.02;8.32;;;11.10;67.70;;;;;;5054273;28;20205;-60
2022/01/02 11:20:09;;;;;;;9.23;8.57;;;11.10;67.60;;;;;;5054092;28;20563;-58
2022/01/02 11:22:42;;;;;;;9.35;8.65;;;11.00;67.70;;;;;;5053974;28;20764;-55
2022/01/02 11:25:30;;;;;;;7.55;6.97;;;11.00;67.70;;;;;;5052632;28;20208;-58
2022/01/02 11:28:00;;;;;;;8.68;7.95;;;11.00;67.80;;;;;;5053912;28;20201;-58
2022/01/02 11:30:42;;;;;;;9.20;8.40;;;11.20;67.50;;;;;;5053792;28;20206;-61
2022/01/02 11:33:13;;;;;;;7.90;7.40;;;11.40;66.70;;;;;;5053716;28;20217;-60
2022/01/02 11:35:42;;;;;;;8.80;8.10;;;11.50;65.80;;;;;;5053681;28;20233;-60
2022/01/02 11:38:10;;;;;;;8.90;8.20;;;11.70;65.60;;;;;;5053709;28;20207;-58
2022/01/02 11:40:47;;;;;;;8.60;8.00;;;11.70;65.90;;;;;;5052415;28;20197;-58
2022/01/02 11:43:48;;;;;;;9.23;8.57;;;11.70;65.70;;;;;;5053805;28;20205;-58
2022/01/02 11:46:17;;;;;;;8.43;7.82;;;11.80;65.80;;;;;;5050548;28;20295;-60
2022/01/02 11:49:25;;;;;;;8.10;7.50;;;11.80;65.90;;;;;;5053693;28;20540;-60
2022/01/02 11:52:26;;;;;;;8.32;7.72;;;11.70;66.50;;;;;;5053565;28;20232;-57
2022/01/02 11:54:55;;;;;;;6.85;6.45;;;11.60;67.90;;;;;;5053632;28;20319;-59
2022/01/02 11:57:54;;;;;;;7.13;6.70;;;11.50;64.80;;;;;;5052635;28;20211;-57
2022/01/02 12:00:44;;;;;;;6.60;6.20;;;11.70;62.70;;;;;;5053362;28;20278;-59
2022/01/02 12:03:49;;;;;;;7.22;6.93;;;12.00;61.50;;;;;;5053272;28;20212;-60
2022/01/02 12:06:21;;;;;;;6.72;6.28;;;12.20;59.80;;;;;;5053243;28;20287;-63
2022/01/02 12:08:49;;;;;;;6.20;5.80;;;12.40;59.10;;;;;;5052970;28;20297;-60
2022/01/02 12:11:45;;;;;;;7.03;6.60;;;12.50;58.50;;;;;;5051789;28;20243;-60
2022/01/02 12:14:22;;;;;;;6.60;6.30;;;12.60;58.20;;;;;;5053110;28;20251;-57
2022/01/02 12:17:07;;;;;;;7.35;6.95;;;12.70;56.90;;;;;;5053183;28;20563;-60
2022/01/02 12:20:03;;;;;;;6.97;6.68;;;12.80;57.30;;;;;;5052983;28;20209;-60
2022/01/02 12:22:45;;;;;;;7.90;7.50;;;13.00;57.50;;;;;;5053084;28;20296;-60
2022/01/02 12:25:14;;;;;;;7.35;6.90;;;13.20;56.10;;;;;;5051540;28;20319;-61
2022/01/02 12:27:55;;;;;;;7.00;6.70;;;13.20;56.10;;;;;;5052759;28;20212;-60
2022/01/02 12:30:24;;;;;;;7.00;6.63;;;13.20;55.60;;;;;;5052667;28;20205;-57
2022/01/02 12:32:51;;;;;;;7.20;6.80;;;13.30;55.00;;;;;;5052893;28;20230;-59
2022/01/02 12:35:18;;;;;;;7.45;7.05;;;13.60;54.70;;;;;;5052895;28;20232;-60
2022/01/02 12:37:46;;;;;;;7.40;7.00;;;14.00;54.00;;;;;;5052904;28;20591;-62
2022/01/02 12:40:15;;;;;;;7.30;6.90;;;14.10;53.60;;;;;;5051339;28;20488;-59
2022/01/02 12:42:43;;;;;;;6.90;6.47;;;14.30;53.80;;;;;;5052761;28;20443;-60
2022/01/02 12:45:10;;;;;;;6.33;6.03;;;14.50;52.70;;;;;;5052607;28;20470;-62
2022/01/02 12:47:49;;;;;;;7.40;7.00;;;14.40;52.70;;;;;;5052680;28;20801;-61
2022/01/02 12:50:27;;;;;;;6.93;6.63;;;14.60;53.20;;;;;;5052652;28;20535;-59
2022/01/02 12:52:54;;;;;;;7.73;7.13;;;14.80;52.60;;;;;;5052526;28;20452;-60
2022/01/02 12:55:21;;;;;;;7.30;6.90;;;14.70;52.80;;;;;;5051250;28;20499;-59
2022/01/02 12:57:48;;;;;;;7.93;7.53;;;14.80;53.30;;;;;;5052628;28;20505;-60
2022/01/02 13:00:15;;;;;;;7.60;7.20;;;14.80;53.30;;;;;;5052415;28;20939;-61
2022/01/02 13:02:45;;;;;;;7.40;7.00;;;14.90;53.60;;;;;;5052577;28;20462;-61
2022/01/02 13:05:13;;;;;;;7.10;6.70;;;14.80;53.60;;;;;;5052751;28;20454;-59
2022/01/02 13:07:40;;;;;;;7.73;7.27;;;14.80;54.10;;;;;;5052610;28;20452;-62